Winona, MO (65588)

3:55 PM CDT on September 02, 2014 (GMT -0500)
RAWS BIG SPRING MO US | Change Station
CLOSE
Current Station
Personal Weather Station
Location: Van Buren, MO
Elevation: 631 ft
Nearby Weather Stations

Elev 631 ft 36.97 °N, 91.02 °W | Updated 33 minutes ago

Partly Cloudy
Partly Cloudy
80 °F
Feels Like 84 °F
N
2
Wind Variable Wind from WSW
Gusts 5.0 mph

Today
High -- | Low -- °F
--% Chance of Precip.
Yesterday
High -- | Low -- °F
Precip. -- in
6:36 AM 7:31 PM
First Quarter, 55% visible
Pressure 29.98 in
Visibility 10.0 miles
Clouds Few 1600 ft
Heat Index 84 °F
Dew Point 71 °F
Humidity 75%
Rainfall 0.19 in
Snow Depth Not available.
UV 8 out of 12
Pollen 8.70 out of 12
Air Quality Not available.
Flu Activity Not available.
METAR KUNO 021953Z AUTO VRB05KT 10SM FEW016 23/18 A3002 RMK AO2 SLP152 T02330183

More Conditions Fewer Conditions

Pressure 29.98 in
Visibility 10.0 miles
Clouds Few 1600 ft
Heat Index 84 °F
Dew Point 71 °F
Humidity 75%
Rainfall 0.19 in
Snow Depth Not available.
UV 8 out of 12
Pollen 8.70 out of 12
Air Quality Not available.
Flu Activity Not available.
METAR KUNO 021953Z AUTO VRB05KT 10SM FEW016 23/18 A3002 RMK AO2 SLP152 T02330183

More Conditions Fewer Conditions

10-Day Weather Forecast

Almanac

Astronomy

Sep. 02, 2014 Rise Set
Actual Time 6:36 AM CDT 7:31 PM CDT
Civil Twilight 6:09 AM CDT 7:58 PM CDT
Nautical Twilight 5:38 AM CDT 8:29 PM CDT
Astronomical Twilight 5:05 AM CDT 9:02 PM CDT
Moon 2:11 PM CDT No Moon Set
Length of Visible Light 13h 48m
Length of Day
12h 55m
Tomorrow will be 2m 16s shorter.
First Quarter, 55% of the Moon is Illuminated
Today
First Quarter
Sep 8
Full
Sep 15
Last Quarter
Sep 24
New
Oct 1
First Quarter

Today's Extremes

State Highs State Lows

Community

WunderPhotos

Upload Photos

1,749,763 photos uploaded!

WunderBlogs® & News

Nearby

Snow Depth

Station Depth Elevation
No new snow has been reported.

Earthquake Activity

City Distance Mag. Time & Date
Tiptonville, Tennessee 105 miles 2.9 11:19 PM CDT
2014-08-31
Minimum magnitude displayed is 2.5.

Coastal Water Temperatures

Place Temperature
No Stations Reporting

Nearby Weather Stations